Time;durP1;ratioP1;P1;durP2;ratioP2;P2;SDS_P1;SDS_P2;PMS_P1;PMS_P2;Temp;Humidity;BMP_temperature;BMP_pressure;BME280_temperature;BME280_humidity;BME280_pressure;Samples;Min_cycle;Max_cycle;Signal;HPM_P1;HPM_P2
2023/07/14 00:00:23;;;;;;;6.63;3.15;;;18.90;99.90;;;;;;5091100;28;20039;-76
2023/07/14 00:02:50;;;;;;;3.90;2.40;;;18.80;99.90;;;;;;5091635;28;20069;-76
2023/07/14 00:05:20;;;;;;;4.32;2.47;;;18.80;99.90;;;;;;5091414;28;20063;-76
2023/07/14 00:07:50;;;;;;;5.05;2.67;;;18.80;99.90;;;;;;5091519;28;20032;-76
2023/07/14 00:10:26;;;;;;;4.18;2.50;;;18.80;99.90;;;;;;5090875;28;20099;-77
2023/07/14 00:12:52;;;;;;;5.97;2.75;;;18.70;99.90;;;;;;5091291;28;20093;-77
2023/07/14 00:15:21;;;;;;;3.47;2.70;;;18.60;99.90;;;;;;5091125;28;20119;-77
2023/07/14 00:17:50;;;;;;;5.70;2.78;;;18.50;99.90;;;;;;5095273;28;20433;-76
2023/07/14 00:20:28;;;;;;;4.35;2.35;;;18.50;99.90;;;;;;5094738;28;20474;-77
2023/07/14 00:22:54;;;;;;;4.47;2.80;;;18.50;99.90;;;;;;5094723;28;20048;-76
2023/07/14 00:25:24;;;;;;;4.75;3.03;;;18.50;99.90;;;;;;5095009;28;20025;-76
2023/07/14 00:27:55;;;;;;;3.92;2.67;;;18.50;99.90;;;;;;5095114;28;20024;-77
2023/07/14 00:30:23;;;;;;;3.28;2.67;;;18.40;99.90;;;;;;5094425;28;20056;-77
2023/07/14 00:32:51;;;;;;;3.63;2.83;;;18.30;99.90;;;;;;5094450;28;20028;-77
2023/07/14 00:35:25;;;;;;;5.70;3.20;;;18.40;99.90;;;;;;5094270;28;20413;-76
2023/07/14 00:37:52;;;;;;;5.65;3.55;;;18.40;99.90;;;;;;5094373;28;20020;-77
2023/07/14 00:40:32;;;;;;;5.75;3.28;;;18.50;99.90;;;;;;5094895;28;20063;-76
2023/07/14 00:42:58;;;;;;;15.43;3.88;;;18.60;99.90;;;;;;5094025;28;20070;-76
2023/07/14 00:45:27;;;;;;;4.40;3.20;;;18.80;99.90;;;;;;5094972;28;20509;-76
2023/07/14 00:47:57;;;;;;;5.75;3.78;;;18.80;99.90;;;;;;5094610;28;20243;-77
2023/07/14 00:50:33;;;;;;;6.45;4.05;;;18.80;99.90;;;;;;5094560;28;20031;-76
2023/07/14 00:53:03;;;;;;;8.15;4.40;;;18.80;99.90;;;;;;5093892;28;20064;-76
2023/07/14 00:55:40;;;;;;;6.20;4.28;;;18.80;99.90;;;;;;5094133;28;20098;-77
2023/07/14 00:58:24;;;;;;;6.22;4.60;;;18.80;99.90;;;;;;5094546;28;20035;-77
2023/07/14 01:01:06;;;;;;;5.28;4.45;;;18.70;99.90;;;;;;5094464;28;20436;-77
2023/07/14 01:03:32;;;;;;;6.40;4.35;;;18.60;99.90;;;;;;5094460;28;20521;-78
2023/07/14 01:06:02;;;;;;;6.45;4.38;;;18.60;99.90;;;;;;5094536;28;20048;-77
2023/07/14 01:08:30;;;;;;;7.10;4.47;;;18.60;99.90;;;;;;5093631;28;20502;-77
2023/07/14 01:10:56;;;;;;;5.05;3.80;;;18.40;99.90;;;;;;5092200;28;20028;-77
2023/07/14 01:13:23;;;;;;;4.20;3.80;;;18.40;99.90;;;;;;5094144;28;20032;-77
2023/07/14 01:15:50;;;;;;;7.70;3.60;;;18.30;99.90;;;;;;5094653;28;20081;-78
2023/07/14 01:18:16;;;;;;;4.35;3.63;;;18.20;99.90;;;;;;5093677;28;20486;-78
2023/07/14 01:20:41;;;;;;;6.55;3.53;;;18.00;99.90;;;;;;5093694;28;20028;-78
2023/07/14 01:23:36;;;;;;;5.38;3.47;;;18.00;99.90;;;;;;5093423;28;20109;-78
2023/07/14 01:26:14;;;;;;;5.75;3.63;;;18.00;99.90;;;;;;5093433;28;20102;-78
2023/07/14 01:28:41;;;;;;;6.38;3.38;;;18.00;99.90;;;;;;5093137;28;20451;-77
2023/07/14 01:31:12;;;;;;;6.10;3.30;;;17.90;99.90;;;;;;5094220;28;20024;-77
2023/07/14 01:33:38;;;;;;;3.75;2.90;;;17.90;99.90;;;;;;5093583;28;20059;-78
2023/07/14 01:36:04;;;;;;;5.20;2.72;;;18.00;99.90;;;;;;5093333;28;20044;-78
2023/07/14 01:38:30;;;;;;;5.15;3.05;;;18.00;99.90;;;;;;5093534;28;20030;-77
2023/07/14 01:40:56;;;;;;;4.13;2.85;;;18.00;99.90;;;;;;5094090;28;20036;-77
2023/07/14 01:43:23;;;;;;;4.45;2.58;;;17.90;99.90;;;;;;5093482;28;20497;-77
2023/07/14 01:45:57;;;;;;;4.45;3.08;;;17.80;99.90;;;;;;5093111;28;20095;-77
2023/07/14 01:48:58;;;;;;;3.65;2.60;;;17.70;99.90;;;;;;5092004;28;20440;-77
2023/07/14 01:51:27;;;;;;;2.92;2.28;;;17.70;99.90;;;;;;5029732;28;20038;-77
2023/07/14 01:54:05;;;;;;;3.50;2.50;;;17.80;99.90;;;;;;5030609;28;20514;-77
2023/07/14 01:56:32;;;;;;;3.97;2.50;;;17.90;99.90;;;;;;5031048;28;20037;-77
2023/07/14 01:59:08;;;;;;;4.25;2.47;;;18.00;99.90;;;;;;5030630;28;20061;-76
2023/07/14 02:01:36;;;;;;;3.97;2.70;;;18.10;99.90;;;;;;5030628;28;20033;-78
2023/07/14 02:04:04;;;;;;;5.88;2.75;;;18.10;99.90;;;;;;5013816;28;20404;-77
2023/07/14 02:06:31;;;;;;;5.72;2.70;;;18.20;99.90;;;;;;5030222;28;20037;-77
2023/07/14 02:08:58;;;;;;;4.95;2.40;;;18.30;99.90;;;;;;5030389;28;20068;-77
2023/07/14 02:11:24;;;;;;;3.55;2.40;;;18.30;99.90;;;;;;5030388;28;20026;-77
2023/07/14 02:13:55;;;;;;;4.28;2.45;;;18.20;99.90;;;;;;5030398;28;20543;-78
2023/07/14 02:16:22;;;;;;;4.28;2.45;;;18.20;99.90;;;;;;5030177;28;20510;-78
2023/07/14 02:18:48;;;;;;;3.15;2.22;;;18.10;99.90;;;;;;5029757;28;20034;-78
2023/07/14 02:21:21;;;;;;;3.05;2.40;;;18.10;99.90;;;;;;5029826;28;20053;-78
2023/07/14 02:23:48;;;;;;;3.40;2.50;;;18.20;99.90;;;;;;5029692;28;20096;-79
2023/07/14 02:26:35;;;;;;;6.80;2.28;;;18.10;99.90;;;;;;5012974;28;20080;-78
2023/07/14 02:29:01;;;;;;;5.10;2.58;;;18.00;99.90;;;;;;5067954;28;20116;-78
2023/07/14 02:31:47;;;;;;;4.00;2.30;;;17.80;99.90;;;;;;5072551;28;20111;-79
2023/07/14 02:34:15;;;;;;;4.97;2.42;;;17.80;99.90;;;;;;5072139;28;20041;-78
2023/07/14 02:36:54;;;;;;;6.75;2.50;;;17.70;99.90;;;;;;5072315;28;20028;-79
2023/07/14 02:39:20;;;;;;;3.47;2.08;;;17.60;99.90;;;;;;5070887;28;20433;-78
2023/07/14 02:41:48;;;;;;;4.03;2.30;;;17.50;99.90;;;;;;5070484;28;20027;-79
2023/07/14 02:44:17;;;;;;;5.32;3.20;;;17.50;99.90;;;;;;5072340;28;20033;-79
2023/07/14 02:46:56;;;;;;;5.20;2.20;;;17.40;99.90;;;;;;5072056;28;20044;-79
2023/07/14 02:49:21;;;;;;;4.90;2.47;;;17.50;99.90;;;;;;5071359;28;20063;-78
2023/07/14 02:51:47;;;;;;;4.30;2.63;;;17.50;99.90;;;;;;5071696;28;20452;-78
2023/07/14 02:54:13;;;;;;;6.13;2.50;;;17.50;99.90;;;;;;5072199;28;20063;-78
2023/07/14 02:56:38;;;;;;;5.63;2.47;;;17.40;99.90;;;;;;5071345;28;20021;-79
2023/07/14 02:59:05;;;;;;;3.97;2.08;;;17.40;99.90;;;;;;5071436;28;20112;-78
2023/07/14 03:01:32;;;;;;;4.90;2.30;;;17.40;99.90;;;;;;5071472;28;20021;-78
2023/07/14 03:03:59;;;;;;;5.60;2.60;;;17.40;99.90;;;;;;5071092;28;20487;-78
2023/07/14 03:06:25;;;;;;;5.47;2.30;;;17.40;99.90;;;;;;5071904;28;20048;-79
2023/07/14 03:08:51;;;;;;;4.75;2.58;;;17.40;99.90;;;;;;5071656;28;20479;-79
2023/07/14 03:11:18;;;;;;;3.55;2.45;;;17.40;99.90;;;;;;5086001;28;20024;-79
2023/07/14 03:13:46;;;;;;;4.65;2.58;;;17.30;99.90;;;;;;5091771;28;20032;-79
2023/07/14 03:16:12;;;;;;;3.50;2.13;;;17.30;99.90;;;;;;5091562;28;20088;-78
2023/07/14 03:18:38;;;;;;;2.88;2.30;;;17.50;99.90;;;;;;5091020;28;20111;-79
2023/07/14 03:21:05;;;;;;;3.50;2.25;;;17.60;99.90;;;;;;5092047;28;20108;-79
2023/07/14 03:23:33;;;;;;;4.45;2.28;;;17.80;99.90;;;;;;5091341;28;20051;-79
2023/07/14 03:26:02;;;;;;;3.42;2.17;;;17.80;99.90;;;;;;5091887;28;20028;-78
2023/07/14 03:28:29;;;;;;;3.70;2.20;;;17.90;99.90;;;;;;5091474;28;20390;-79
2023/07/14 03:30:55;;;;;;;6.93;2.33;;;17.90;99.90;;;;;;5091600;28;20032;-79
2023/07/14 03:33:21;;;;;;;4.65;2.60;;;17.90;99.90;;;;;;5091368;28;20046;-79
2023/07/14 03:35:47;;;;;;;3.70;2.22;;;18.00;99.90;;;;;;5091818;28;20028;-78
2023/07/14 03:38:13;;;;;;;2.88;2.00;;;17.80;99.90;;;;;;5091610;28;20111;-79
2023/07/14 03:40:39;;;;;;;4.32;2.33;;;17.80;99.90;;;;;;5091228;28;20102;-80
2023/07/14 03:43:05;;;;;;;4.32;2.40;;;17.70;99.90;;;;;;5092139;28;20024;-81
2023/07/14 03:45:31;;;;;;;3.10;2.25;;;17.70;99.90;;;;;;5091884;28;20722;-82
2023/07/14 03:47:57;;;;;;;4.50;2.30;;;17.60;99.90;;;;;;5091528;28;20490;-80
2023/07/14 03:50:23;;;;;;;3.67;2.30;;;17.50;99.90;;;;;;5091814;28;20032;-80
2023/07/14 03:52:48;;;;;;;6.00;2.22;;;17.40;99.90;;;;;;5095678;28;20516;-81
2023/07/14 03:55:14;;;;;;;4.50;2.38;;;17.30;99.90;;;;;;5095934;28;20118;-82
2023/07/14 03:57:40;;;;;;;3.13;2.08;;;17.20;99.90;;;;;;5095387;28;20479;-81
2023/07/14 04:00:14;;;;;;;4.18;2.30;;;17.00;99.90;;;;;;5095132;28;20031;-80
2023/07/14 04:02:40;;;;;;;3.83;2.20;;;17.10;99.90;;;;;;5095078;28;20119;-80
2023/07/14 04:05:08;;;;;;;4.05;2.25;;;17.10;99.90;;;;;;5095687;28;20039;-80
2023/07/14 04:07:37;;;;;;;4.97;2.30;;;17.00;99.90;;;;;;5095424;28;20024;-80
2023/07/14 04:10:04;;;;;;;3.50;2.38;;;17.00;99.90;;;;;;5095549;28;20443;-80
2023/07/14 04:12:31;;;;;;;3.22;2.45;;;17.00;99.90;;;;;;5095648;28;20064;-80
2023/07/14 04:14:57;;;;;;;4.07;2.60;;;16.90;99.90;;;;;;5094963;28;20093;-80
2023/07/14 04:17:23;;;;;;;4.43;2.42;;;16.90;99.90;;;;;;5094540;28;20463;-81
2023/07/14 04:19:49;;;;;;;3.30;2.45;;;16.90;99.90;;;;;;5095037;28;20113;-81
2023/07/14 04:22:15;;;;;;;4.50;2.40;;;16.90;99.90;;;;;;5094801;28;20066;-80
2023/07/14 04:24:41;;;;;;;7.00;2.35;;;16.80;99.90;;;;;;5095111;28;20059;-81
2023/07/14 04:27:06;;;;;;;5.45;2.47;;;16.80;99.90;;;;;;5093481;28;20032;-80
2023/07/14 04:29:32;;;;;;;4.15;2.30;;;16.70;99.90;;;;;;5095430;28;20113;-81
2023/07/14 04:31:58;;;;;;;4.15;2.45;;;16.80;99.90;;;;;;5095227;28;20028;-80
2023/07/14 04:34:26;;;;;;;3.15;2.22;;;16.80;99.90;;;;;;5094722;28;20089;-80
2023/07/14 04:36:53;;;;;;;4.60;2.97;;;16.80;99.90;;;;;;5094242;28;20478;-80
2023/07/14 04:39:19;;;;;;;3.17;2.53;;;17.00;99.90;;;;;;5094673;28;20032;-79
2023/07/14 04:41:45;;;;;;;3.97;2.28;;;17.00;99.90;;;;;;5094610;28;20027;-80
2023/07/14 04:44:13;;;;;;;3.80;2.20;;;17.10;99.90;;;;;;5095146;28;20032;-81
2023/07/14 04:46:40;;;;;;;5.32;2.17;;;17.10;99.90;;;;;;5094546;28;20031;-81
2023/07/14 04:49:10;;;;;;;4.68;2.38;;;17.20;99.90;;;;;;5094904;28;20504;-83
2023/07/14 04:51:36;;;;;;;4.38;2.40;;;17.20;99.90;;;;;;5094964;28;20019;-82
2023/07/14 04:54:03;;;;;;;3.25;2.20;;;17.20;99.90;;;;;;5092894;28;20027;-83
2023/07/14 04:56:30;;;;;;;5.68;3.53;;;17.20;99.90;;;;;;5094077;28;20035;-83
2023/07/14 04:58:56;;;;;;;6.40;3.10;;;17.30;99.90;;;;;;5094348;28;20391;-83
2023/07/14 05:01:22;;;;;;;5.47;2.30;;;17.30;99.90;;;;;;5094395;28;20020;-82
2023/07/14 05:03:48;;;;;;;6.20;2.30;;;17.40;99.90;;;;;;5093960;28;20032;-82
2023/07/14 05:06:14;;;;;;;4.72;2.03;;;17.30;99.90;;;;;;5094652;28;20390;-82
2023/07/14 05:08:40;;;;;;;5.18;2.40;;;17.20;99.90;;;;;;5094645;28;20024;-82
2023/07/14 05:11:06;;;;;;;4.47;2.42;;;17.00;99.90;;;;;;5093750;28;20475;-83
2023/07/14 05:13:32;;;;;;;4.10;2.10;;;16.90;99.90;;;;;;5094163;28;20389;-82
2023/07/14 05:15:58;;;;;;;4.95;2.40;;;17.00;99.90;;;;;;5094516;28;20028;-83
2023/07/14 05:18:25;;;;;;;3.72;2.33;;;16.90;99.90;;;;;;5094368;28;20501;-83
2023/07/14 05:20:52;;;;;;;3.85;2.30;;;16.90;99.90;;;;;;5094078;28;20016;-81
2023/07/14 05:23:18;;;;;;;2.97;2.20;;;16.80;99.90;;;;;;5093479;28;20143;-82
2023/07/14 05:25:45;;;;;;;4.10;2.30;;;16.80;99.90;;;;;;5093727;28;20546;-81
2023/07/14 05:28:11;;;;;;;2.88;2.20;;;16.80;99.90;;;;;;5093893;28;20224;-81
2023/07/14 05:30:37;;;;;;;3.10;2.17;;;16.80;99.90;;;;;;5093321;28;20039;-81
2023/07/14 05:33:03;;;;;;;3.58;2.20;;;16.80;99.90;;;;;;5093831;28;20035;-80
2023/07/14 05:35:29;;;;;;;3.28;2.30;;;16.90;99.90;;;;;;5093579;28;20551;-81
2023/07/14 05:37:56;;;;;;;2.83;1.92;;;16.90;99.90;;;;;;5093655;28;20024;-82
2023/07/14 05:40:22;;;;;;;4.15;2.30;;;17.00;99.90;;;;;;5093328;28;20040;-81
2023/07/14 05:42:48;;;;;;;3.45;2.20;;;17.00;99.90;;;;;;5092970;28;20548;-80
2023/07/14 05:45:14;;;;;;;3.70;2.40;;;17.00;99.90;;;;;;5093903;28;20398;-81
2023/07/14 05:47:45;;;;;;;4.28;2.20;;;17.00;99.90;;;;;;5092895;28;20027;-80
2023/07/14 05:50:11;;;;;;;4.25;2.17;;;17.10;99.90;;;;;;5093206;28;20044;-81
2023/07/14 05:52:37;;;;;;;4.88;2.22;;;17.10;99.90;;;;;;5093514;28;20080;-83
2023/07/14 05:55:03;;;;;;;4.22;2.28;;;17.10;99.90;;;;;;5093993;28;20039;-83
2023/07/14 05:57:31;;;;;;;2.65;2.10;;;17.20;99.90;;;;;;5093040;28;20023;-83
2023/07/14 05:59:57;;;;;;;2.88;2.08;;;17.50;99.90;;;;;;5093817;28;20050;-83
2023/07/14 06:02:22;;;;;;;2.97;1.88;;;17.60;99.90;;;;;;5092932;28;20119;-83
2023/07/14 06:04:48;;;;;;;4.00;2.22;;;17.80;99.90;;;;;;5093893;28;20391;-83
2023/07/14 06:07:14;;;;;;;3.95;1.90;;;17.90;99.90;;;;;;5093280;28;20032;-83
2023/07/14 06:09:41;;;;;;;4.07;2.22;;;18.10;99.90;;;;;;5092497;28;20030;-84
2023/07/14 06:12:09;;;;;;;4.60;2.10;;;18.00;99.90;;;;;;5092869;28;20398;-83
2023/07/14 06:14:37;;;;;;;3.38;2.05;;;18.10;99.90;;;;;;5092640;28;20114;-84
2023/07/14 06:17:03;;;;;;;3.97;2.22;;;18.20;99.90;;;;;;5092944;28;20028;-85
2023/07/14 06:19:29;;;;;;;2.92;1.90;;;18.20;99.90;;;;;;5093023;28;20035;-85
2023/07/14 06:21:56;;;;;;;6.28;1.90;;;18.30;99.90;;;;;;5093325;28;20017;-83
2023/07/14 06:24:22;;;;;;;3.70;2.10;;;18.50;99.90;;;;;;5092514;28;20130;-83
2023/07/14 06:26:48;;;;;;;4.82;2.30;;;18.50;99.90;;;;;;5092244;28;20073;-83
2023/07/14 06:29:14;;;;;;;4.43;2.35;;;18.40;99.90;;;;;;5092981;28;20028;-83
2023/07/14 06:31:39;;;;;;;3.03;2.20;;;18.40;99.90;;;;;;5093006;28;20089;-83
2023/07/14 06:34:06;;;;;;;2.42;1.90;;;18.30;99.90;;;;;;5093045;28;20024;-83
2023/07/14 06:36:32;;;;;;;4.18;2.05;;;18.30;99.90;;;;;;5093032;28;20089;-83
2023/07/14 06:38:58;;;;;;;4.25;2.00;;;18.40;99.90;;;;;;5092590;28;20035;-81
2023/07/14 06:41:24;;;;;;;5.00;2.13;;;18.40;99.90;;;;;;5091600;28;20031;-81
2023/07/14 06:43:50;;;;;;;2.75;2.00;;;18.40;99.90;;;;;;5092927;28;20020;-81
2023/07/14 06:46:16;;;;;;;3.83;2.05;;;18.50;99.90;;;;;;5092408;28;20028;-81
2023/07/14 06:48:41;;;;;;;2.30;1.65;;;18.60;99.90;;;;;;5092033;28;20540;-81
2023/07/14 06:51:07;;;;;;;3.00;1.90;;;18.70;99.90;;;;;;5092022;28;20028;-82
2023/07/14 06:53:33;;;;;;;3.45;2.05;;;18.70;99.90;;;;;;5092262;28;20040;-82
2023/07/14 06:55:59;;;;;;;3.53;2.00;;;18.80;99.90;;;;;;5091542;28;20035;-82
2023/07/14 06:58:25;;;;;;;2.85;2.08;;;18.90;99.90;;;;;;5091874;28;20016;-81
2023/07/14 07:00:51;;;;;;;3.05;1.95;;;18.90;99.90;;;;;;5091591;28;20308;-80
2023/07/14 07:03:17;;;;;;;4.30;2.00;;;19.00;99.90;;;;;;5092139;28;20035;-81
2023/07/14 07:05:44;;;;;;;4.03;1.80;;;19.00;99.90;;;;;;5092839;28;20024;-82
2023/07/14 07:08:12;;;;;;;3.13;1.80;;;19.10;99.90;;;;;;5092298;28;20020;-81
2023/07/14 07:10:40;;;;;;;3.17;2.00;;;19.20;99.90;;;;;;5091359;28;20036;-81
2023/07/14 07:13:05;;;;;;;2.05;1.80;;;19.20;99.90;;;;;;5089779;28;20107;-78
2023/07/14 07:15:31;;;;;;;5.53;2.17;;;19.30;99.90;;;;;;5089549;28;20627;-70
2023/07/14 07:17:57;;;;;;;3.50;1.67;;;19.60;99.90;;;;;;5085756;28;20030;-71
2023/07/14 07:20:22;;;;;;;4.72;3.55;;;20.00;99.90;;;;;;5072159;28;20110;-73
2023/07/14 07:22:48;;;;;;;3.92;3.17;;;20.30;99.90;;;;;;5074332;28;20550;-71
2023/07/14 07:25:16;;;;;;;4.65;2.47;;;20.50;99.90;;;;;;5077683;28;20029;-72
2023/07/14 07:27:43;;;;;;;2.92;1.92;;;20.60;99.90;;;;;;5071397;28;20036;-71
2023/07/14 07:30:10;;;;;;;4.18;2.72;;;20.70;99.90;;;;;;5071275;28;20028;-70
2023/07/14 07:32:36;;;;;;;5.50;2.47;;;20.80;99.90;;;;;;5071156;28;20403;-67
2023/07/14 07:35:03;;;;;;;6.70;2.05;;;20.90;99.90;;;;;;5071428;28;20044;-67
2023/07/14 07:37:34;;;;;;;3.83;2.03;;;21.00;99.90;;;;;;5070928;28;20487;-67
2023/07/14 07:40:06;;;;;;;5.07;2.05;;;21.10;99.90;;;;;;5082921;28;20097;-69
2023/07/14 07:42:34;;;;;;;3.28;1.80;;;21.20;99.90;;;;;;5091075;28;20032;-67
2023/07/14 07:45:00;;;;;;;3.30;2.00;;;21.30;99.90;;;;;;5087621;28;20020;-67
2023/07/14 07:47:26;;;;;;;4.75;1.60;;;21.40;99.90;;;;;;5090357;28;20032;-66
2023/07/14 07:49:52;;;;;;;5.28;1.90;;;21.50;99.90;;;;;;5090969;28;20386;-67
2023/07/14 07:52:18;;;;;;;4.72;1.92;;;21.60;99.90;;;;;;5090791;28;20051;-67
2023/07/14 07:54:44;;;;;;;2.83;1.50;;;21.70;99.90;;;;;;5090398;28;20047;-68
2023/07/14 07:57:10;;;;;;;3.50;1.70;;;21.80;99.90;;;;;;5087863;28;20016;-66
2023/07/14 07:59:37;;;;;;;3.83;1.52;;;21.90;99.90;;;;;;5077113;28;20029;-67
2023/07/14 08:02:03;;;;;;;3.65;1.55;;;21.90;99.90;;;;;;5082184;28;20025;-67
2023/07/14 08:04:29;;;;;;;6.20;1.60;;;22.10;99.90;;;;;;5091070;28;20103;-67
2023/07/14 08:06:55;;;;;;;2.67;1.60;;;22.10;99.90;;;;;;5079392;28;20105;-67
2023/07/14 08:09:21;;;;;;;7.18;2.08;;;22.00;99.90;;;;;;5070127;28;20479;-67
2023/07/14 08:11:47;;;;;;;3.95;1.60;;;21.90;99.90;;;;;;5088923;28;20031;-67
2023/07/14 08:14:18;;;;;;;5.63;1.50;;;22.00;99.90;;;;;;5090460;28;20093;-67
2023/07/14 08:16:45;;;;;;;5.70;1.52;;;22.00;99.90;;;;;;5090742;28;20030;-67
2023/07/14 08:19:13;;;;;;;3.08;1.50;;;22.00;99.90;;;;;;5091150;28;20035;-67
2023/07/14 08:21:39;;;;;;;4.63;1.60;;;22.00;99.90;;;;;;5085744;28;20047;-66
2023/07/14 08:24:06;;;;;;;5.80;1.70;;;22.10;99.90;;;;;;5070691;28;20088;-67
2023/07/14 08:26:37;;;;;;;5.07;1.98;;;22.10;99.90;;;;;;5087096;28;20024;-66
2023/07/14 08:29:04;;;;;;;5.90;1.67;;;22.20;99.90;;;;;;5089349;28;20493;-67
2023/07/14 08:31:30;;;;;;;3.28;1.55;;;22.30;99.90;;;;;;5072861;28;20024;-67
2023/07/14 08:33:56;;;;;;;6.55;1.67;;;22.40;99.90;;;;;;5070254;28;20426;-67
2023/07/14 08:36:23;;;;;;;4.10;1.60;;;22.50;99.90;;;;;;5070195;28;20035;-67
2023/07/14 08:38:49;;;;;;;4.18;1.42;;;22.60;99.90;;;;;;5072458;28;20567;-66
2023/07/14 08:41:20;;;;;;;5.15;1.70;;;22.70;99.90;;;;;;5073717;28;20099;-67
2023/07/14 08:44:17;;;;;;;4.57;1.80;;;22.90;99.90;;;;;;5075567;28;20086;-66
2023/07/14 08:47:03;;;;;;;2.53;1.45;;;22.90;99.90;;;;;;5021813;28;20064;-66
2023/07/14 08:49:50;;;;;;;5.65;1.50;;;23.00;99.90;;;;;;5031384;28;20127;-66
2023/07/14 08:52:18;;;;;;;4.00;1.67;;;23.10;99.90;;;;;;5021619;28;20105;-66
2023/07/14 08:54:54;;;;;;;6.40;1.85;;;23.10;99.90;;;;;;5017977;28;20079;-66
2023/07/14 08:57:23;;;;;;;8.20;1.85;;;23.30;99.90;;;;;;5031333;28;20029;-66
2023/07/14 08:59:54;;;;;;;6.10;1.88;;;23.40;99.90;;;;;;5024035;28;20141;-66
2023/07/14 09:02:41;;;;;;;3.85;1.65;;;23.50;99.90;;;;;;5017331;28;20524;-67
2023/07/14 09:05:16;;;;;;;5.65;1.77;;;23.70;99.90;;;;;;5010707;28;20053;-66
2023/07/14 09:07:43;;;;;;;4.85;1.60;;;23.90;99.90;;;;;;5011178;28;20058;-66
2023/07/14 09:10:12;;;;;;;5.13;1.70;;;24.00;99.90;;;;;;5011545;28;20033;-66
2023/07/14 09:12:51;;;;;;;5.40;1.90;;;24.00;99.90;;;;;;5011416;28;20057;-66
2023/07/14 09:15:22;;;;;;;5.30;1.73;;;24.20;99.90;;;;;;5011177;28;20508;-67
2023/07/14 09:18:09;;;;;;;4.80;1.52;;;24.30;99.90;;;;;;4991089;28;20034;-67
2023/07/14 09:20:59;;;;;;;3.80;1.55;;;24.50;99.90;;;;;;4990801;28;20034;-67
2023/07/14 09:23:33;;;;;;;3.25;1.50;;;24.60;99.90;;;;;;5043217;28;20044;-66
2023/07/14 09:26:13;;;;;;;3.95;1.67;;;24.70;99.90;;;;;;5073445;28;20433;-66
2023/07/14 09:28:49;;;;;;;5.30;1.77;;;24.70;99.90;;;;;;5072523;28;20020;-66
2023/07/14 09:31:40;;;;;;;3.45;1.50;;;24.90;99.90;;;;;;5073180;28;20031;-66
2023/07/14 09:34:33;;;;;;;3.22;1.40;;;25.10;99.90;;;;;;5073183;28;20033;-66
2023/07/14 09:37:00;;;;;;;4.55;1.60;;;25.20;99.90;;;;;;5073049;28;20519;-66
2023/07/14 09:39:40;;;;;;;4.13;1.55;;;25.20;99.90;;;;;;5072809;28;20411;-66
2023/07/14 09:42:18;;;;;;;3.40;1.50;;;25.30;99.90;;;;;;5072908;28;20021;-66
2023/07/14 09:44:44;;;;;;;6.03;1.70;;;25.40;99.90;;;;;;5072793;28;20028;-66
2023/07/14 09:47:10;;;;;;;6.53;2.08;;;25.30;99.90;;;;;;5072389;28;20016;-67
2023/07/14 09:49:57;;;;;;;2.45;1.45;;;25.40;99.90;;;;;;5071857;28;20028;-66
2023/07/14 09:52:27;;;;;;;3.17;1.30;;;25.40;99.90;;;;;;5072465;28;20421;-66
2023/07/14 09:54:57;;;;;;;3.55;1.63;;;25.50;99.90;;;;;;5072759;28;20040;-65
2023/07/14 09:57:28;;;;;;;4.20;1.90;;;25.70;99.90;;;;;;5072693;28;20033;-67
2023/07/14 09:59:57;;;;;;;4.63;1.80;;;25.90;99.90;;;;;;5072442;28;20050;-66
2023/07/14 10:02:34;;;;;;;6.50;2.03;;;25.80;99.90;;;;;;5072605;28;20048;-66
2023/07/14 10:05:21;;;;;;;9.07;2.10;;;26.00;99.90;;;;;;5071851;28;20107;-66
2023/07/14 10:07:47;;;;;;;3.75;1.90;;;26.20;99.90;;;;;;5072252;28;20107;-66
2023/07/14 10:10:14;;;;;;;3.78;3.30;;;26.30;99.90;;;;;;5077713;28;20043;-59
2023/07/14 10:12:46;;;;;;;5.07;2.53;;;26.20;99.90;;;;;;5092221;28;20095;-59
2023/07/14 10:15:34;;;;;;;5.32;2.40;;;26.30;99.90;;;;;;5092117;28;20044;-59
2023/07/14 10:18:02;;;;;;;5.13;4.63;;;26.40;99.90;;;;;;5090367;28;20056;-59
2023/07/14 10:20:31;;;;;;;7.60;5.28;;;26.60;99.90;;;;;;5092746;28;20028;-59
2023/07/14 10:22:58;;;;;;;10.70;9.63;;;26.70;99.90;;;;;;5092191;28;20044;-59
2023/07/14 10:25:26;;;;;;;7.38;6.22;;;27.00;99.90;;;;;;5092299;28;20024;-59
2023/07/14 10:28:11;;;;;;;4.13;3.72;;;27.10;99.90;;;;;;5092352;28;20023;-59
2023/07/14 10:30:49;;;;;;;3.47;2.25;;;27.10;99.90;;;;;;5091947;28;20028;-59
2023/07/14 10:33:24;;;;;;;4.90;2.30;;;27.30;99.90;;;;;;5091920;28;20394;-59
2023/07/14 10:35:57;;;;;;;3.63;2.00;;;27.30;99.90;;;;;;5091869;28;20410;-59
2023/07/14 10:38:32;;;;;;;2.75;2.20;;;27.50;99.90;;;;;;5092007;28;20032;-57
2023/07/14 10:41:04;;;;;;;7.28;2.55;;;27.70;99.90;;;;;;5092397;28;20035;-59
2023/07/14 10:43:56;;;;;;;2.85;2.25;;;27.70;99.90;;;;;;5092281;28;20116;-59
2023/07/14 10:46:24;;;;;;;3.42;2.05;;;27.60;99.90;;;;;;5092008;28;20031;-59
2023/07/14 10:49:00;;;;;;;2.50;2.00;;;27.70;99.90;;;;;;5091263;28;20438;-59
2023/07/14 10:51:57;;;;;;;2.45;1.83;;;27.90;99.90;;;;;;5091140;28;20024;-59
2023/07/14 10:54:43;;;;;;;4.03;2.13;;;28.10;99.90;;;;;;5090727;28;20047;-60
2023/07/14 10:57:39;;;;;;;4.18;1.65;;;28.40;99.90;;;;;;5092055;28;20462;-59
2023/07/14 11:00:19;;;;;;;3.15;2.00;;;28.80;99.90;;;;;;5090754;28;20440;-59
2023/07/14 11:02:57;;;;;;;7.88;5.80;;;28.60;99.90;;;;;;5091158;28;20023;-59
2023/07/14 11:05:26;;;;;;;60.15;52.60;;;28.80;99.90;;;;;;5091576;28;20074;-58
2023/07/14 11:07:52;;;;;;;153.77;102.55;;;28.70;99.90;;;;;;5091413;28;20140;-59
2023/07/14 11:10:30;;;;;;;425.70;250.40;;;29.10;99.90;;;;;;5091306;28;20051;-59
2023/07/14 11:13:09;;;;;;;778.60;429.35;;;29.10;99.90;;;;;;5091131;28;20028;-59
2023/07/14 11:15:52;;;;;;;344.40;175.55;;;28.90;99.90;;;;;;5091147;28;20409;-59
2023/07/14 11:18:48;;;;;;;199.40;103.78;;;28.90;99.90;;;;;;5078429;28;20024;-59
2023/07/14 11:21:32;;;;;;;65.47;30.27;;;28.90;99.90;;;;;;5077614;28;20395;-59
2023/07/14 11:23:58;;;;;;;9.88;5.75;;;29.20;99.90;;;;;;5090906;28;20044;-59
2023/07/14 11:26:31;;;;;;;4.82;3.20;;;29.70;99.90;;;;;;5083317;28;20474;-60
2023/07/14 11:29:10;;;;;;;5.82;3.28;;;29.90;99.90;;;;;;5071000;28;20048;-60
2023/07/14 11:31:59;;;;;;;3.55;2.50;;;30.20;99.90;;;;;;5070552;28;20029;-59
2023/07/14 11:34:33;;;;;;;3.53;2.13;;;30.20;99.90;;;;;;5070268;28;20037;-59
2023/07/14 11:37:29;;;;;;;2.78;2.13;;;29.90;99.90;;;;;;5070840;28;20025;-59
2023/07/14 11:40:00;;;;;;;3.78;2.20;;;29.90;99.90;;;;;;5070841;28;20052;-59
2023/07/14 11:42:34;;;;;;;4.53;2.00;;;30.10;99.90;;;;;;5070584;28;20044;-60
2023/07/14 11:45:10;;;;;;;4.80;1.73;;;30.50;99.90;;;;;;5079111;28;20105;-60
2023/07/14 11:47:41;;;;;;;4.53;2.30;;;30.70;99.90;;;;;;5077312;28;20028;-60
2023/07/14 11:50:16;;;;;;;4.28;2.10;;;30.50;99.90;;;;;;5085082;28;20033;-60
2023/07/14 11:53:05;;;;;;;3.17;1.90;;;30.70;99.90;;;;;;5070480;28;20024;-59
2023/07/14 11:55:32;;;;;;;3.47;1.80;;;30.70;99.90;;;;;;5089056;28;20040;-60
2023/07/14 11:58:22;;;;;;;2.55;2.10;;;30.80;99.90;;;;;;5090223;28;20016;-58
2023/07/14 12:01:13;;;;;;;4.82;2.00;;;31.00;99.90;;;;;;5087814;28;20017;-60
2023/07/14 12:03:43;;;;;;;4.05;2.13;;;31.10;99.90;;;;;;5089741;28;20081;-60
2023/07/14 12:06:12;;;;;;;4.57;2.15;;;30.80;99.90;;;;;;5090434;28;20036;-59
2023/07/14 12:08:39;;;;;;;2.70;2.30;;;30.20;99.90;;;;;;5083912;28;20032;-60
2023/07/14 12:11:28;;;;;;;8.07;2.33;;;29.90;99.90;;;;;;5087676;28;20028;-60
2023/07/14 12:13:53;;;;;;;3.67;2.38;;;29.90;99.90;;;;;;5094663;28;20047;-59
2023/07/14 12:16:28;;;;;;;5.47;2.50;;;30.40;99.90;;;;;;5094473;28;20020;-59
2023/07/14 12:18:56;;;;;;;5.75;2.70;;;30.70;99.90;;;;;;5094607;28;20027;-60
2023/07/14 12:21:43;;;;;;;5.47;3.00;;;30.50;99.90;;;;;;5092685;28;20055;-60
2023/07/14 12:24:18;;;;;;;2.97;2.38;;;30.40;99.90;;;;;;5094325;28;20091;-60
2023/07/14 12:26:50;;;;;;;3.03;2.40;;;30.80;99.90;;;;;;5094480;28;20032;-60
2023/07/14 12:29:19;;;;;;;3.65;2.47;;;31.10;99.90;;;;;;5087150;28;20036;-60
2023/07/14 12:31:53;;;;;;;2.95;2.40;;;31.70;99.90;;;;;;5083326;28;20115;-60
2023/07/14 12:34:29;;;;;;;4.07;2.13;;;31.90;99.90;;;;;;5084679;28;20032;-60
2023/07/14 12:36:55;;;;;;;5.03;2.30;;;31.90;99.90;;;;;;5079738;28;20116;-60
2023/07/14 12:39:21;;;;;;;3.95;2.05;;;32.10;99.90;;;;;;5082010;28;20103;-60
2023/07/14 12:41:49;;;;;;;5.65;2.40;;;32.10;99.90;;;;;;5085496;28;20047;-60
2023/07/14 12:44:31;;;;;;;3.60;2.03;;;32.20;99.90;;;;;;5093577;28;20055;-60
2023/07/14 12:46:58;;;;;;;3.05;2.35;;;32.40;99.90;;;;;;5094196;28;20375;-60
2023/07/14 12:49:40;;;;;;;4.18;2.13;;;32.40;99.90;;;;;;5091860;28;20021;-60
2023/07/14 12:52:24;;;;;;;2.65;2.30;;;32.50;99.90;;;;;;5089406;28;20501;-60
2023/07/14 12:54:52;;;;;;;4.50;2.20;;;32.60;99.90;;;;;;5084738;28;20518;-60
2023/07/14 12:57:20;;;;;;;4.47;2.20;;;32.80;99.90;;;;;;5072877;28;20086;-60
2023/07/14 12:59:50;;;;;;;3.17;2.40;;;32.90;99.90;;;;;;5073704;28;20032;-60
2023/07/14 13:02:17;;;;;;;2.85;2.15;;;32.80;99.90;;;;;;5073586;28;20033;-60